Mukilteo, WA (98275)

10:13 AM PDT on July 24, 2016 (GMT -0700)
Harbor Wood | | Change Station

Elev 436 ft 47.91 °N, 122.31 °W | Updated 30 seconds ago

Clear
Clear
64.4 °F
Feels Like 64.4 °F
N
1.1
Wind Variable Wind from SW
Gusts 2.5 mph

Today
High -- | Low -- °F
--% Chance of Precip.
Yesterday
High -- | Low -- °F
Precip. -- in
Pressure 30.14 in
Visibility 10.0 miles
Clouds Clear
Dew Point 55 °F
Humidity 72%
Rainfall 0.00 in
Snow Depth Not available.
5:36 AM 8:54 PM
Waning Gibbous, 75% visible
METAR KPAE 241653Z VRB05KT 10SM CLR 17/12 A3014 RMK AO2 SLP206 T01720117
Pressure 30.14 in
Visibility 10.0 miles
Clouds Clear
Dew Point 55 °F
Humidity 72%
Rainfall 0.00 in
Snow Depth Not available.
5:36 AM 8:54 PM
Waning Gibbous, 75% visible
METAR KPAE 241653Z VRB05KT 10SM CLR 17/12 A3014 RMK AO2 SLP206 T01720117

10-Day Weather Forecast

Almanac

Astronomy

Jul. 24, 2016 Rise Set
Actual Time
Civil Twilight
Nautical Twilight
Astronomical Twilight
Moon
Length of Visible Light
Length of Day
Tomorrow will be .
, % of the Moon is Illuminated

Today's Extremes

State Highs State Lows

Community

WunderPhotos

Upload Photos

1,927,125 photos uploaded!

WunderBlog® & News

Nearby

Air Quality

  Air Quality AQ Index Pollutant
Not available.

Snow Depth

Station Depth Elevation

Earthquake Activity

City Distance Mag. Time & Date
Minimum magnitude displayed is 2.5.

Coastal Water Temperatures

Place Temperature

Stations

Nearby Weather Stations

Station Location Temp. Windchill Dew Point Humidity Wind Precip. Elev Updated Type
                   

Watches & Warnings

There are currently no watches in effect.